Terminal Aerodrome Forecast
Issued by NWS

Home | Current Version | Previous Version | Text Only | Print | Product List | Glossary On
Versions: 1 2 3 4 5 6 7 8 9 10 11 12 13 14
776
FTUS46 KMTR 092333
TAFSNS
TAF
KSNS 092333Z 1000/1024 12006KT P6SM SCT030 BKN100
     FM100300 10004KT P6SM -SHRA SCT015 BKN030
     FM100800 14011KT P6SM -RA OVC010
     FM101500 12015KT 5SM -RA BR OVC015=

USA.gov is the U.S. government's official web portal to all federal, state and local government web resources and services.